^^
Datos históricos de la estación: Murcia-Puente Tocinos
Diario Informe para Mayo 16, 2019 Unidades:  Ingés    Métrico   Ambas
Diario Semanal Mensual Anual
  Máxima: Mínima: Promedio:
Temperatura: 56.8 °F 46.6 °F 52 °F
Punto de rocio: 50.4 °F 42.8 °F 46.8 °F
Humedad: 88% 74% 83%
Velocidad viento: 4.7mph 0mph 1.9mph
Racha viento: 7.4mph - -
Viento- - SSO
Presión: 29.9 in 29.6 in -
Precipitación: 0 in    
 
 
Tabla de datos para Mayo 16, 2019
Hora Temperatura Punto de rocio Presión Viento Velocidad viento Racha viento Humedad Intensidad lluvia(por hora) Nubes
00:04 51.6 °F 46.4 °F 29.9 in SO 2.1 mph 3 mph 82% 0 in
00:09 51.4 °F 46.4 °F 29.9 in SO 1.8 mph 3 mph 82.9% 0 in
00:14 51.3 °F 46.2 °F 29.9 in SO 0.9 mph 2.4 mph 83% 0 in
00:19 51.3 °F 46.6 °F 29.9 in Calm   2.3 mph 83.7% 0 in
00:24 51.1 °F 46.4 °F 29.9 in Calm   4.6 mph 84% 0 in
00:29 51.1 °F 46.4 °F 29.9 in Calm   5 mph 84% 0 in
00:34 51.1 °F 46.4 °F 29.9 in SSE 1 mph 4.6 mph 84% 0 in
00:39 50.9 °F 46.4 °F 29.9 in Sur 2 mph 5 mph 84.5% 0 in
00:44 50.9 °F 46.6 °F 29.9 in SSE 2.5 mph 5.2 mph 85% 0 in
00:49 50.9 °F 46.6 °F 29.9 in Sur 2.9 mph 5 mph 85% 0 in
00:54 50.7 °F 46.6 °F 29.9 in SSO 2.4 mph 4 mph 85% 0 in
00:59 50.7 °F 46.4 °F 29.9 in Sur 2 mph 4.6 mph 85% 0 in
01:04 50.7 °F 46.4 °F 29.9 in SE 1.7 mph 5 mph 85% 0 in
01:09 50.7 °F 46.4 °F 29.9 in ESE 1.4 mph 3 mph 85% 0 in
01:14 50.7 °F 46.4 °F 29.9 in ESE 1.4 mph 3.1 mph 85% 0 in
01:19 50.5 °F 46.2 °F 29.9 in ESE 1.4 mph 3 mph 85% 0 in
01:24 50.4 °F 46 °F 29.9 in ESE 0.7 mph 2.9 mph 85% 0 in
01:29 50.4 °F 46 °F 29.9 in Calm   3 mph 85% 0 in
01:34 50.4 °F 46 °F 29.9 in SSO 1 mph 3.6 mph 85% 0 in
01:39 50.4 °F 46 °F 29.9 in SSO 2 mph 4 mph 85.4% 0 in
01:44 50.2 °F 46.2 °F 29.9 in SSO 2 mph 3.1 mph 86% 0 in
01:49 50.2 °F 46.2 °F 29.9 in SSO 2 mph 3 mph 86% 0 in
01:54 50.2 °F 46.2 °F 29.9 in SSO 1.9 mph 4.3 mph 86% 0 in
01:59 50.2 °F 45.9 °F 29.8 in SSO 1.8 mph 5.2 mph 85.3% 0 in
02:04 50.2 °F 45.9 °F 29.8 in SSO 2.1 mph 5 mph 85% 0 in
02:09 50 °F 45.5 °F 29.8 in Sur 2.4 mph 5.9 mph 84.5% 0 in
02:14 50 °F 45.1 °F 29.8 in Sur 2.6 mph 6 mph 83.5% 0 in
02:19 50 °F 45 °F 29.8 in Sur 2.9 mph 5 mph 83% 0 in
02:24 50.2 °F 45.1 °F 29.8 in SSO 2.9 mph 4.6 mph 83% 0 in
02:29 50.2 °F 45 °F 29.8 in Sur 2.9 mph 5 mph 82.4% 0 in
02:34 50.2 °F 44.8 °F 29.8 in SSO 2.9 mph 5 mph 82% 0 in
02:39 50 °F 44.8 °F 29.8 in SSO 2.9 mph 5 mph 82% 0 in
02:44 50 °F 44.8 °F 29.8 in SSO 2.2 mph 4 mph 82% 0 in
02:49 49.8 °F 44.8 °F 29.8 in SSO 1.4 mph 1 mph 82.3% 0 in
02:54 49.6 °F 44.8 °F 29.8 in SSO 0.7 mph 2.9 mph 83% 0 in
02:59 49.6 °F 44.8 °F 29.8 in Calm   3 mph 83.5% 0 in
03:04 49.5 °F 44.8 °F 29.8 in Calm   2.9 mph 84% 0 in
03:09 49.3 °F 44.8 °F 29.8 in Calm   3.5 mph 84.3% 0 in
03:14 48.9 °F 44.6 °F 29.8 in OSO 0.9 mph 3 mph 85.1% 0 in
03:19 48.9 °F 44.8 °F 29.8 in OSO 1.8 mph 2.3 mph 86% 0 in
03:24 48.7 °F 44.8 °F 29.8 in OSO 0.9 mph 2 mph 86% 0 in
03:29 48.7 °F 45 °F 29.8 in Calm   2.9 mph 86.8% 0 in
03:34 48.6 °F 45 °F 29.8 in Calm   3 mph 87% 0 in
03:39 48.6 °F 45 °F 29.8 in Calm   2 mph 87% 0 in
03:44 48.6 °F 45 °F 29.8 in Calm     87% 0 in
03:49 48.6 °F 45 °F 29.8 in Calm     87% 0 in
03:54 48.6 °F 45 °F 29.8 in Calm     87% 0 in
03:59 48.6 °F 45 °F 29.8 in Calm   2.4 mph 87% 0 in
04:04 48.6 °F 44.8 °F 29.8 in Calm   2.3 mph 87% 0 in
04:09 48.4 °F 44.8 °F 29.8 in Calm   2 mph 87.1% 0 in
04:14 48.4 °F 45 °F 29.8 in Calm   4.6 mph 88% 0 in
04:19 48.4 °F 45 °F 29.8 in Calm   5 mph 88% 0 in
04:24 48.4 °F 45 °F 29.8 in SE 0.9 mph 5 mph 88% 0 in
04:29 48.4 °F 44.8 °F 29.8 in SE 2 mph 5 mph 87.3% 0 in
04:34 48.4 °F 44.8 °F 29.8 in SSE 2.2 mph 5 mph 87% 0 in
04:39 48.4 °F 44.6 °F 29.8 in SSO 2.4 mph 5 mph 87% 0 in
04:44 48.2 °F 44.6 °F 29.8 in SSO 2.4 mph 5 mph 87% 0 in
04:49 48.2 °F 44.4 °F 29.8 in SSO 2.4 mph 4 mph 87% 0 in
04:54 48.2 °F 44.4 °F 29.8 in SSO 2.2 mph 3 mph 87% 0 in
04:59 48.2 °F 44.6 °F 29.8 in Sur 2 mph 3.5 mph 87% 0 in
05:04 48.4 °F 44.4 °F 29.8 in Este 2 mph 3.5 mph 86.2% 0 in
05:09 48.2 °F 44.2 °F 29.8 in Sur 2 mph 4.6 mph 86% 0 in
05:14 48 °F 44.1 °F 29.8 in SSO 2 mph 5 mph 86% 0 in
05:19 48 °F 44.1 °F 29.8 in SSO 2 mph 5.2 mph 86% 0 in
05:24 48 °F 44.1 °F 29.8 in SSO 2 mph 5 mph 86% 0 in
05:29 48 °F 44.1 °F 29.8 in SSO 2 mph 5 mph 86% 0 in
05:34 47.8 °F 43.9 °F 29.8 in SSO 2.4 mph 5 mph 86% 0 in
05:39 47.8 °F 43.9 °F 29.8 in SSO 2.9 mph 5 mph 86% 0 in
05:44 47.8 °F 43.5 °F 29.8 in Sur 2.5 mph 5 mph 85.1% 0 in
05:49 47.8 °F 43.5 °F 29.8 in SSO 2 mph 5 mph 85% 0 in
05:54 48 °F 43.7 °F 29.8 in SSO 2 mph 5 mph 85% 0 in
05:59 48 °F 43.7 °F 29.8 in SSO 2 mph 2.3 mph 85% 0 in
06:04 48 °F 43.7 °F 29.8 in SSO 1 mph 1 mph 85% 0 in
06:09 48 °F 43.7 °F 29.8 in Calm   4.7 mph 85% 0 in
06:14 48 °F 43.7 °F 29.8 in SSO 0.9 mph 5 mph 85% 0 in
06:19 48 °F 43.7 °F 29.8 in SSO 2 mph 5 mph 85% 0 in
06:24 48 °F 43.7 °F 29.8 in SSO 1.7 mph 2 mph 85% 0 in
06:29 48 °F 43.7 °F 29.8 in SSO 1.4 mph 3.6 mph 85% 0 in
06:34 48 °F 43.7 °F 29.8 in SSE 1.4 mph 4.7 mph 85% 0 in
06:39 47.8 °F 43.5 °F 29.8 in Sur 1.4 mph 5.8 mph 84.8% 0 in
06:44 47.8 °F 43.5 °F 29.8 in SSO 2.2 mph 6 mph 85% 0 in
06:49 47.8 °F 43.5 °F 29.8 in Sur 3.1 mph 6 mph 85% 0 in
06:54 47.8 °F 43.5 °F 29.8 in SSO 3.1 mph 6 mph 85% 0 in
06:59 47.8 °F 43.5 °F 29.8 in SSO 3.1 mph 5 mph 85% 0 in
07:04 47.8 °F 43.5 °F 29.8 in SSO 2.2 mph 2.4 mph 85% 0 in
07:09 47.8 °F 43.5 °F 29.8 in SSO 1.4 mph 2.9 mph 84.9% 0 in
07:14 47.8 °F 43.2 °F 29.8 in SO 1.4 mph 3.6 mph 84% 0 in
07:19 47.7 °F 43 °F 29.8 in North 1.4 mph 4 mph 84% 0 in
07:24 47.1 °F 42.8 °F 29.8 in NNO 1.7 mph 4 mph 84.8% 0 in
07:29 46.9 °F 43 °F 29.8 in NNO 2 mph 3.6 mph 85.9% 0 in
07:34 46.8 °F 42.8 °F 29.8 in NNO 1.9 mph 4 mph 86% 0 in
07:39 46.8 °F 43 °F 29.8 in NNO 1.8 mph 2.4 mph 86.7% 0 in
07:44 46.6 °F 43 °F 29.8 in NNO 1.6 mph 2.4 mph 87% 0 in
07:49 46.6 °F 43 °F 29.8 in NNO 1.4 mph 2.4 mph 87.6% 0 in
07:54 46.6 °F 43.2 °F 29.8 in NNO 0.7 mph 2.3 mph 88% 0 in
07:59 46.6 °F 43.2 °F 29.8 in Calm   2 mph 88% 0 in
08:04 46.8 °F 43.3 °F 29.8 in Calm   2.3 mph 88% 0 in
08:09 46.8 °F 43.3 °F 29.8 in Calm   2.9 mph 88% 0 in
08:14 46.9 °F 43.5 °F 29.8 in NNO 0.7 mph 3 mph 88% 0 in
08:19 46.9 °F 43.5 °F 29.8 in NNO 1.4 mph 3.1 mph 88% 0 in
08:24 46.8 °F 43.2 °F 29.8 in NNO 0.7 mph 3.5 mph 87.2% 0 in
08:29 46.8 °F 43.2 °F 29.8 in Calm   3 mph 87.3% 0 in
08:34 46.8 °F 43.3 °F 29.8 in Oeste 0.9 mph 5.8 mph 88% 0 in
08:39 46.8 °F 43.3 °F 29.8 in Oeste 1.8 mph 6 mph 88% 0 in
08:44 46.8 °F 43.3 °F 29.8 in OSO 1.8 mph 5 mph 88% 0 in
08:49 46.8 °F 43.5 °F 29.8 in SO 1.8 mph 3.5 mph 88% 0 in
08:54 46.9 °F 43.5 °F 29.8 in SSE 1.8 mph 3.5 mph 88% 0 in
08:59 47.1 °F 43.5 °F 29.8 in Sur 1.8 mph 4.7 mph 87.4% 0 in
09:04 47.1 °F 43.3 °F 29.8 in SE 1.9 mph 5 mph 87% 0 in
09:09 47.3 °F 43.3 °F 29.8 in SE 2 mph 5.8 mph 86.5% 0 in
09:14 47.3 °F 43.3 °F 29.8 in SE 2.5 mph 6 mph 86% 0 in
09:19 47.5 °F 43.5 °F 29.8 in Sur 2.9 mph 5.8 mph 86% 0 in
09:24 47.5 °F 43.5 °F 29.8 in Sur 3 mph 6 mph 86% 0 in
09:29 47.7 °F 43.7 °F 29.8 in SO 3.1 mph 5.2 mph 86% 0 in
09:34 47.8 °F 43.7 °F 29.8 in SSO 3.4 mph 5.9 mph 85.5% 0 in
09:39 47.8 °F 43.3 °F 29.8 in SSO 3.6 mph 6.4 mph 84.3% 0 in
09:44 48 °F 43.5 °F 29.8 in Sur 3.9 mph 7.4 mph 84% 0 in
09:49 48.2 °F 43.3 °F 29.8 in Sur 4.3 mph 7.4 mph 83.3% 0 in
09:54 48.4 °F 43.5 °F 29.8 in Sur 4.5 mph 7 mph 83% 0 in
09:59 48.4 °F 43.5 °F 29.8 in SSO 4.7 mph 6 mph 83% 0 in
10:04 48.6 °F 43.5 °F 29.8 in Sur 3.7 mph 6 mph 83% 0 in
10:09 48.6 °F 43.5 °F 29.8 in Sur 2.9 mph 5 mph 83% 0 in
10:14 48.7 °F 43.7 °F 29.8 in SSO 2.4 mph 4 mph 83% 0 in
10:19 48.9 °F 43.9 °F 29.8 in Oeste 1.8 mph 4.6 mph 83% 0 in
10:24 49.1 °F 43.9 °F 29.8 in ONO 1.9 mph 5 mph 82.4% 0 in
10:29 49.3 °F 44.1 °F 29.8 in Oeste 2 mph 5 mph 82.2% 0 in
10:34 49.3 °F 44.1 °F 29.8 in SO 2.4 mph 6.2 mph 82% 0 in
10:39 49.5 °F 44.1 °F 29.8 in OSO 2.9 mph 6 mph 82% 0 in
10:44 49.5 °F 44.2 °F 29.8 in OSO 2.9 mph 5 mph 82.2% 0 in
10:49 49.6 °F 44.4 °F 29.8 in Oeste 2.9 mph 5 mph 82% 0 in
10:54 49.6 °F 44.4 °F 29.8 in Oeste 2.4 mph 5 mph 81.9% 0 in
10:59 49.8 °F 44.2 °F 29.8 in SO 2 mph 5 mph 81% 0 in
11:04 50.2 °F 44.6 °F 29.8 in SSO 2.2 mph 5.4 mph 81% 0 in
11:09 50.4 °F 44.4 °F 29.8 in SSE 2.4 mph 6 mph 80.2% 0 in
11:14 50.5 °F 44.6 °F 29.8 in SSE 2.7 mph 6 mph 80% 0 in
11:19 50.7 °F 44.8 °F 29.8 in ESE 3.1 mph 5.2 mph 80% 0 in
11:24 50.7 °F 44.6 °F 29.8 in Sur 3 mph 5.8 mph 79.2% 0 in
11:29 50.9 °F 44.6 °F 29.8 in SSO 2.9 mph 6 mph 79% 0 in
11:34 51.1 °F 44.8 °F 29.8 in Sur 2.1 mph 3.6 mph 79% 0 in
11:39 51.3 °F 45 °F 29.8 in SSE 1.4 mph 4 mph 78.6% 0 in
11:44 51.4 °F 44.8 °F 29.8 in Sur 1.6 mph 4.7 mph 78% 0 in
11:49 51.4 °F 44.8 °F 29.8 in SSO 1.8 mph 5.2 mph 78% 0 in
11:54 51.4 °F 44.8 °F 29.8 in Oeste 2.4 mph 5 mph 78% 0 in
11:59 51.4 °F 45 °F 29.8 in SO 2.9 mph 5.8 mph 78% 0 in
12:04 51.6 °F 45 °F 29.8 in SSO 2.9 mph 6 mph 78% 0 in
12:09 51.8 °F 45.1 °F 29.8 in SSE 2.9 mph 5 mph 77.7% 0 in
12:14 52.2 °F 45.1 °F 29.8 in SE 2.4 mph 5 mph 77% 0 in
12:19 52.3 °F 45.3 °F 29.8 in SE 2 mph 5 mph 77% 0 in
12:24 52.3 °F 45.3 °F 29.8 in SE 1.9 mph 5 mph 76.8% 0 in
12:29 52.7 °F 45.3 °F 29.7 in ESE 1.8 mph 5 mph 76% 0 in
12:34 52.9 °F 45.5 °F 29.7 in SSO 2.1 mph 5 mph 76% 0 in
12:39 53.1 °F 45.7 °F 29.7 in SO 2.4 mph 5 mph 76% 0 in
12:44 53.2 °F 45.5 °F 29.7 in OSO 2.7 mph 5 mph 75.3% 0 in
12:49 53.2 °F 45.9 °F 29.7 in OSO 2.9 mph 5 mph 75.9% 0 in
12:54 53.6 °F 46.2 °F 29.7 in SO 2.4 mph 4 mph 76% 0 in
12:59 54 °F 46.6 °F 29.7 in OSO 1.8 mph 5 mph 76% 0 in
13:04 54.3 °F 46.9 °F 29.7 in SSO 1.8 mph 5 mph 76% 0 in
13:09 54.9 °F 47.1 °F 29.7 in ENE 1.8 mph 3.5 mph 75.4% 0 in
13:14 55 °F 47.3 °F 29.7 in NNE 1.6 mph 3.5 mph 74.8% 0 in
13:19 55.4 °F 47.1 °F 29.7 in NE 1.4 mph 3.5 mph 74% 0 in
13:24 55.6 °F 47.5 °F 29.7 in ENE 1.6 mph 4.6 mph 74.2% 0 in
13:29 55.6 °F 47.7 °F 29.7 in SO 1.8 mph 5 mph 74.7% 0 in
13:34 55.8 °F 48 °F 29.7 in SO 0.9 mph 2.4 mph 74.9% 0 in
13:39 56.1 °F 48 °F 29.7 in Calm   3.6 mph 74.5% 0 in
13:44 56.1 °F 47.8 °F 29.7 in NNO 0.9 mph 4 mph 74% 0 in
13:49 56.1 °F 48 °F 29.7 in NNO 1.8 mph 3.5 mph 74.4% 0 in
13:54 56.1 °F 48.4 °F 29.7 in NO 1.6 mph 4.6 mph 75% 0 in
13:59 56.1 °F 48.6 °F 29.7 in Oeste 1.4 mph 5 mph 75.7% 0 in
14:04 55.9 °F 48.7 °F 29.7 in Oeste 1.7 mph 3 mph 76.8% 0 in
14:09 56.1 °F 49.1 °F 29.7 in ONO 2 mph 2.9 mph 77% 0 in
14:14 56.5 °F 49.1 °F 29.7 in NNO 1.1 mph 3 mph 76.4% 0 in
14:19 56.5 °F 48.9 °F 29.7 in Calm   4.3 mph 76% 0 in
14:24 56.5 °F 48.9 °F 29.7 in ENE 0.9 mph 5 mph 76% 0 in
14:29 56.3 °F 48.7 °F 29.7 in ENE 2 mph 5 mph 76% 0 in
14:34 56.5 °F 49.1 °F 29.7 in ENE 1.7 mph 3.5 mph 76.4% 0 in
14:39 56.5 °F 49.1 °F 29.7 in NE 1.4 mph 3.6 mph 76.4% 0 in
14:44 56.5 °F 49.5 °F 29.7 in NE 1.6 mph 4.7 mph 77% 0 in
14:49 56.5 °F 49.5 °F 29.7 in North 1.8 mph 5 mph 77% 0 in
14:54 56.7 °F 49.5 °F 29.7 in NE 1.8 mph 4.7 mph 77% 0 in
14:59 56.5 °F 49.5 °F 29.7 in NE 1.8 mph 5 mph 77% 0 in
15:04 56.5 °F 49.5 °F 29.7 in NE 1.8 mph 3.6 mph 77% 0 in
15:09 56.5 °F 49.5 °F 29.7 in NNE 1.8 mph 4.6 mph 77% 0 in
15:14 56.5 °F 49.6 °F 29.7 in NO 1.9 mph 5 mph 78% 0 in
15:19 56.5 °F 49.6 °F 29.7 in NO 2 mph 4 mph 78% 0 in
15:24 56.7 °F 49.5 °F 29.7 in NO 1.7 mph 3 mph 77.1% 0 in
15:29 56.5 °F 49.5 °F 29.7 in NO 1.4 mph 3 mph 77% 0 in
15:34 56.7 °F 49.5 °F 29.7 in NO 0.7 mph 4.3 mph 77% 0 in
15:39 56.5 °F 49.5 °F 29.7 in Calm   5 mph 77% 0 in
15:44 56.5 °F 49.6 °F 29.7 in NNE 0.7 mph 3 mph 77.6% 0 in
15:49 56.5 °F 49.6 °F 29.7 in NNE 1.4 mph 1.4 mph 78% 0 in
15:54 56.7 °F 49.8 °F 29.7 in NNE 0.7 mph 3.5 mph 77.8% 0 in
15:59 56.7 °F 49.8 °F 29.7 in Calm   4.6 mph 78% 0 in
16:04 56.7 °F 49.8 °F 29.7 in Este 1.1 mph 5 mph 78% 0 in
16:09 56.7 °F 49.8 °F 29.7 in ESE 2 mph 5 mph 78% 0 in
16:14 56.7 °F 49.8 °F 29.7 in ESE 2.2 mph 5 mph 78% 0 in
16:19 56.7 °F 50 °F 29.7 in ESE 2.4 mph 5 mph 78.2% 0 in
16:24 56.7 °F 50.2 °F 29.7 in ESE 2.2 mph 4 mph 79% 0 in
16:29 56.7 °F 50.2 °F 29.6 in ESE 2 mph 5 mph 79% 0 in
16:34 56.7 °F 50.2 °F 29.6 in ESE 1.9 mph 5 mph 79% 0 in
16:39 56.7 °F 50.2 °F 29.6 in ESE 1.8 mph 3 mph 79% 0 in
16:44 56.7 °F 50.2 °F 29.6 in ESE 0.9 mph 2 mph 79% 0 in
16:49 56.7 °F 50.2 °F 29.6 in Calm   3.5 mph 79% 0 in
16:54 56.8 °F 50.4 °F 29.6 in Calm   4 mph 79% 0 in
16:59 56.8 °F 50.4 °F 29.6 in Calm   5 mph 79% 0 in
17:04 56.8 °F 50.4 °F 29.6 in Oeste 1.3 mph 5 mph 79% 0 in
17:09 56.7 °F 50.2 °F 29.6 in Oeste 2.4 mph 5.2 mph 79% 0 in
17:14 56.7 °F 50.2 °F 29.6 in ONO 2.4 mph 5 mph 79% 0 in
17:19 56.7 °F 50.2 °F 29.6 in ONO 2.4 mph 3.5 mph 78.9% 0 in
17:24 56.7 °F 49.8 °F 29.6 in OSO 2.1 mph 3.6 mph 78% 0 in
17:29 56.7 °F 49.8 °F 29.6 in OSO 1.8 mph 4 mph 78% 0 in
17:34 56.5 °F 49.6 °F 29.6 in OSO 1.6 mph 3 mph 78% 0 in
17:39 56.5 °F 49.6 °F 29.6 in OSO 1.4 mph 3 mph 78% 0 in
17:44 56.5 °F 49.6 °F 29.6 in OSO 0.7 mph 2.4 mph 78% 0 in
17:49 56.5 °F 49.8 °F 29.6 in Calm   3.5 mph 78.7% 0 in
17:54 56.5 °F 50.2 °F 29.6 in North 0.7 mph 3 mph 79.6% 0 in
17:59 56.3 °F 50.2 °F 29.6 in North 1.4 mph 3 mph 80% 0 in
18:04 56.1 °F 50 °F 29.6 in North 1.4 mph 2.3 mph 80% 0 in
18:09 56.1 °F 50 °F 29.6 in North 1.4 mph 2.3 mph 80% 0 in
18:14 56.1 °F 50 °F 29.6 in ENE 1.4 mph 3.6 mph 80% 0 in
18:19 55.9 °F 49.8 °F 29.6 in SE 1.4 mph 4.6 mph 80% 0 in
18:24 55.9 °F 49.8 °F 29.6 in SSO 2.2 mph 5.2 mph 80% 0 in
18:29 55.9 °F 49.8 °F 29.6 in SSO 2.9 mph 5 mph 80% 0 in
18:34 55.9 °F 49.8 °F 29.6 in SO 3 mph 5 mph 80% 0 in
18:39 55.9 °F 49.8 °F 29.6 in SO 3.1 mph 5 mph 80% 0 in
18:44 55.9 °F 49.8 °F 29.6 in SO 2.5 mph 5 mph 80% 0 in
18:49 55.9 °F 49.8 °F 29.6 in SO 2 mph 2.3 mph 80% 0 in
18:54 55.9 °F 49.8 °F 29.6 in SO 1 mph 3.6 mph 80% 0 in
18:59 55.9 °F 49.8 °F 29.6 in Calm   4 mph 80% 0 in
19:04 55.8 °F 49.6 °F 29.6 in SO 0.7 mph 3 mph 80% 0 in
19:09 55.8 °F 49.6 °F 29.6 in SSO 1.4 mph 3.6 mph 80% 0 in
19:14 55.8 °F 49.6 °F 29.6 in SE 1.4 mph 4.7 mph 80% 0 in
19:19 55.8 °F 49.6 °F 29.6 in SE 1.4 mph 5 mph 80% 0 in
19:24 55.8 °F 49.6 °F 29.6 in ESE 1.9 mph 5 mph 80% 0 in
19:29 55.6 °F 49.6 °F 29.6 in ESE 2.4 mph 5 mph 80% 0 in
19:34 55.4 °F 49.6 °F 29.6 in ESE 2.7 mph 5 mph 81% 0 in
19:39 55 °F 49.6 °F 29.6 in SO 2.9 mph 5 mph 81.6% 0 in
19:44 55 °F 49.6 °F 29.6 in OSO 2.9 mph 5.8 mph 82% 0 in
19:49 55 °F 49.6 °F 29.6 in OSO 2.9 mph 6 mph 82% 0 in
19:54 54.9 °F 49.5 °F 29.6 in OSO 2.3 mph 3.6 mph 82% 0 in
19:59 54.9 °F 49.5 °F 29.6 in OSO 1.8 mph 4.6 mph 82% 0 in
20:04 54.7 °F 49.5 °F 29.6 in Oeste 1.9 mph 5 mph 82.7% 0 in
20:09 54.7 °F 49.6 °F 29.6 in OSO 2 mph 4.7 mph 83% 0 in
20:14 54.7 °F 49.6 °F 29.6 in SO 2.2 mph 5 mph 83% 0 in
20:19 54.7 °F 49.6 °F 29.6 in SO 2.4 mph 5 mph 83% 0 in
20:24 54.7 °F 49.6 °F 29.6 in SO 1.9 mph 3.6 mph 83% 0 in
20:29 54.7 °F 49.6 °F 29.6 in SSO 1.4 mph 4.6 mph 83% 0 in
20:34 54.7 °F 49.6 °F 29.6 in SE 2.2 mph 5 mph 83% 0 in
20:39 54.7 °F 49.6 °F 29.6 in SSE 2.9 mph 5.2 mph 83% 0 in
20:44 54.3 °F 49.3 °F 29.6 in SSE 3 mph 5 mph 83% 0 in
20:49 54.1 °F 49.3 °F 29.6 in SSE 3.1 mph 5 mph 83.3% 0 in
20:54 54.1 °F 49.5 °F 29.6 in Sur 3.1 mph 6.2 mph 84% 0 in
20:59 54.1 °F 49.5 °F 29.6 in SSE 3.1 mph 6 mph 84% 0 in
21:04 54.1 °F 49.5 °F 29.6 in SSO 3.4 mph 5.2 mph 84% 0 in
21:09 54.1 °F 49.5 °F 29.6 in SSO 3.6 mph 5.8 mph 84% 0 in
21:14 54.1 °F 49.5 °F 29.6 in SSO 3.4 mph 6 mph 84% 0 in
21:19 54.3 °F 49.6 °F 29.6 in SSO 3.1 mph 5 mph 84% 0 in
21:24 54.3 °F 49.6 °F 29.6 in SSO 2.5 mph 5 mph 84% 0 in
21:29 54.3 °F 49.6 °F 29.6 in SSO 2 mph 2.9 mph 84% 0 in
21:34 54.3 °F 49.6 °F 29.6 in OSO 1.9 mph 5.2 mph 84% 0 in
21:39 54.1 °F 49.5 °F 29.6 in OSO 1.8 mph 6.2 mph 84% 0 in
21:44 54.1 °F 49.6 °F 29.6 in OSO 2.7 mph 6.9 mph 84.9% 0 in
21:49 54.1 °F 49.6 °F 29.6 in SO 3.6 mph 7 mph 85% 0 in
21:54 54.1 °F 49.6 °F 29.6 in OSO 3.6 mph 6 mph 85% 0 in
21:59 54.1 °F 49.8 °F 29.6 in Oeste 3.6 mph 6 mph 85% 0 in
22:04 54.3 °F 49.8 °F 29.6 in Oeste 3 mph 5 mph 85% 0 in
22:09 54.3 °F 49.8 °F 29.6 in Oeste 2.4 mph 3 mph 85% 0 in
22:14 54.3 °F 49.8 °F 29.6 in Oeste 1.9 mph 4.7 mph 85% 0 in
22:19 54.3 °F 50 °F 29.6 in SO 1.4 mph 5 mph 85.1% 0 in
22:24 54.3 °F 50.2 °F 29.6 in SO 1.7 mph 5 mph 85.8% 0 in
22:29 54.3 °F 50.2 °F 29.6 in Sur 2 mph 4.7 mph 85.5% 0 in
22:34 54.5 °F 50 °F 29.6 in SSE 2.5 mph 5 mph 85% 0 in
22:39 54.3 °F 50 °F 29.6 in Sur 2.9 mph 5.8 mph 85% 0 in
22:44 54.3 °F 49.8 °F 29.6 in Sur 3 mph 6 mph 85% 0 in
22:49 54.3 °F 49.8 °F 29.6 in SSE 3.1 mph 5 mph 85% 0 in
22:54 54.1 °F 49.8 °F 29.6 in SE 2.8 mph 5.2 mph 85.1% 0 in
22:59 54.1 °F 49.8 °F 29.6 in SSE 2.4 mph 5.2 mph 85.5% 0 in
23:04 54.1 °F 50 °F 29.6 in Sur 3 mph 5.8 mph 86% 0 in
23:09 54.1 °F 50 °F 29.6 in SSO 3.6 mph 6 mph 86% 0 in
23:14 54.1 °F 50 °F 29.6 in SSO 3.6 mph 6 mph 86% 0 in
23:19 54.1 °F 50 °F 29.6 in Sur 3.6 mph 5 mph 86% 0 in
23:24 54.1 °F 50 °F 29.6 in Sur 3.2 mph 5 mph 86% 0 in
23:29 54.1 °F 50 °F 29.6 in SSO 2.9 mph 5 mph 86% 0 in
23:34 54.1 °F 50 °F 29.6 in SO 3 mph 5 mph 86% 0 in
23:39 54.1 °F 50.2 °F 29.6 in OSO 3.1 mph 5.2 mph 86% 0 in
23:44 54.3 °F 50.2 °F 29.6 in Oeste 3 mph 5 mph 86% 0 in
23:49 54.3 °F 50.2 °F 29.6 in OSO 2.9 mph 5.2 mph 86% 0 in
23:54 54.3 °F 50.2 °F 29.6 in OSO 2.6 mph 5 mph 86% 0 in
23:59 54.3 °F 50.2 °F 29.6 in OSO 2.4 mph 5 mph 86% 0 in
Murcia-Puente Tocinos, Espa?a
Compliments of Weather Underground - 3 mb

La estación de MeteoMurcia.com, publica sus datos en los siguientes proyectos:

Weather Underground PWS IMURCIAP2 Meteoclimatic www.awekas.at

W3Counter
Web Analytics